Skip Navigation LinksHome page > Weather > Current weather Skip Navigation Links

Current Weather

Shoreham, United Kingdom

For information only: do not use for flight planning or navigation.
Latest weather
Observation time Tuesday, October 19, 2021 7:50 PM BST
Local time Tuesday, October 19, 2021 11:12 PM BST
Flight conditions Visual Meteorological Conditions
Winds
Wind direction South-Southwest (210°)
Wind speed 17 mph
Visibility 6.2 mi.
Sky condition
Ceiling 3,000 ft. broken clouds
Cloud layer broken clouds 3,000 ft.
Temperature 64°F
Dewpoint 59°F
Altimeter 29.85 in.Hg
Derived measurements
Relative humidity 83%
Density altitude 664 ft.
METAR EGKA 191850Z 21015KT 9999 BKN030 18/15 Q1011

Settings

Location code

InnerDrive.Weather 4.0.6770.0 Release CLR 4.0.30319.42000
Copyright ©2018 Inner Drive Technology. All rights reserved. Portions Copyright ©1986-2018 David Braverman.

Find weather

Site navigation


Skip Navigation Links

Place info

Page info

PayPal - The safer, easier way to pay online!

Return home.

Copyright ©2021 Inner Drive Technology. Purveyors of fine, hand-crafted computer software. Page printed 2021-10-19T22:12:56 UTC.